Time;durP1;ratioP1;P1;durP2;ratioP2;P2;SDS_P1;SDS_P2;PMS_P1;PMS_P2;Temp;Humidity;BMP_temperature;BMP_pressure;BME280_temperature;BME280_humidity;BME280_pressure;Samples;Min_cycle;Max_cycle;Signal;HPM_P1;HPM_P2
2023/01/25 00:01:42;;;;;;;12.93;10.17;;;2.40;1.00;;;;;;5059381;28;20540;-66
2023/01/25 00:04:08;;;;;;;12.03;10.80;;;2.40;1.00;;;;;;5052823;28;20186;-67
2023/01/25 00:06:33;;;;;;;10.20;9.20;;;2.50;1.00;;;;;;5064358;28;20237;-66
2023/01/25 00:08:59;;;;;;;11.47;10.40;;;2.50;1.00;;;;;;5072621;28;20691;-66
2023/01/25 00:11:25;;;;;;;11.20;10.17;;;2.60;1.00;;;;;;5062532;28;20195;-67
2023/01/25 00:13:52;;;;;;;11.40;10.60;;;2.60;1.00;;;;;;5052724;28;20183;-67
2023/01/25 00:16:18;;;;;;;15.23;10.60;;;2.60;99.90;;;;;;5060599;28;20292;-66
2023/01/25 00:18:44;;;;;;;10.57;9.77;;;2.60;99.90;;;;;;5072675;28;20247;-66
2023/01/25 00:21:18;;;;;;;10.83;9.87;;;2.60;99.90;;;;;;5065005;28;20674;-67
2023/01/25 00:23:44;;;;;;;12.37;11.10;;;2.50;99.90;;;;;;5052565;28;20186;-67
2023/01/25 00:26:10;;;;;;;11.10;10.20;;;2.60;1.00;;;;;;5058336;28;20543;-67
2023/01/25 00:28:36;;;;;;;9.60;8.90;;;2.50;1.00;;;;;;5072537;28;20251;-67
2023/01/25 00:31:03;;;;;;;10.30;9.47;;;2.40;1.00;;;;;;5052229;28;20260;-67
2023/01/25 00:33:55;;;;;;;12.10;11.07;;;2.40;1.00;;;;;;5052740;28;20175;-67
2023/01/25 00:36:36;;;;;;;10.17;9.27;;;2.40;82.80;;;;;;5033642;28;20669;-67
2023/01/25 00:39:02;;;;;;;11.23;9.90;;;2.40;48.90;;;;;;5052242;28;20174;-68
2023/01/25 00:41:28;;;;;;;11.60;10.33;;;2.40;89.70;;;;;;5052171;28;20236;-67
2023/01/25 00:43:53;;;;;;;9.00;8.33;;;2.30;99.90;;;;;;5051865;28;20178;-67
2023/01/25 00:46:19;;;;;;;10.80;10.00;;;2.30;1.00;;;;;;5056099;28;20292;-67
2023/01/25 00:48:45;;;;;;;9.27;8.67;;;2.40;1.00;;;;;;5072114;28;20170;-66
2023/01/25 00:51:10;;;;;;;10.67;9.80;;;2.40;99.90;;;;;;5068424;28;20670;-66
2023/01/25 00:53:36;;;;;;;11.27;10.27;;;2.40;1.00;;;;;;5052094;28;20177;-66
2023/01/25 00:56:02;;;;;;;12.13;11.13;;;2.40;1.00;;;;;;5052577;28;20625;-66
2023/01/25 00:58:28;;;;;;;11.70;10.50;;;2.40;1.00;;;;;;5071970;28;20602;-66
2023/01/25 01:00:55;;;;;;;10.80;9.97;;;2.40;1.00;;;;;;5071513;28;20261;-66
2023/01/25 01:03:20;;;;;;;10.70;9.70;;;2.40;99.90;;;;;;5051959;28;20191;-66
2023/01/25 01:05:46;;;;;;;9.80;9.10;;;2.40;1.00;;;;;;5051739;28;20178;-66
2023/01/25 01:08:13;;;;;;;10.83;9.87;;;2.40;1.00;;;;;;5051384;28;20240;-66
2023/01/25 01:10:39;;;;;;;13.43;11.30;;;2.40;1.00;;;;;;5053543;28;20205;-66
2023/01/25 01:13:06;;;;;;;8.93;8.33;;;2.30;54.70;;;;;;5054744;28;20183;-66
2023/01/25 01:15:34;;;;;;;10.17;9.27;;;2.40;99.90;;;;;;5033829;28;20210;-66
2023/01/25 01:18:00;;;;;;;10.87;9.97;;;2.40;99.90;;;;;;5066489;28;20202;-66
2023/01/25 01:20:26;;;;;;;17.07;10.23;;;2.20;99.90;;;;;;5053680;28;20204;-66
2023/01/25 01:22:54;;;;;;;11.40;10.40;;;2.20;99.90;;;;;;5057979;28;20175;-66
2023/01/25 01:25:20;;;;;;;11.60;10.40;;;2.20;99.90;;;;;;5051481;28;20178;-67
2023/01/25 01:27:45;;;;;;;9.80;9.03;;;2.20;1.00;;;;;;5063262;28;20210;-66
2023/01/25 01:30:11;;;;;;;10.57;9.77;;;2.20;1.00;;;;;;5071176;28;20251;-66
2023/01/25 01:32:37;;;;;;;9.20;8.33;;;2.30;1.00;;;;;;5043107;28;20183;-66
2023/01/25 01:35:03;;;;;;;10.83;10.00;;;2.30;1.00;;;;;;5033280;28;20309;-66
2023/01/25 01:37:28;;;;;;;9.83;9.03;;;2.30;1.00;;;;;;5059984;28;20277;-66
2023/01/25 01:39:54;;;;;;;9.13;8.40;;;2.30;1.00;;;;;;5071263;28;20174;-66
2023/01/25 01:42:19;;;;;;;10.17;9.30;;;2.20;1.00;;;;;;5042800;28;20776;-66
2023/01/25 01:44:48;;;;;;;11.43;10.43;;;2.10;1.00;;;;;;5047583;28;20609;-66
2023/01/25 01:47:17;;;;;;;9.77;8.97;;;2.10;1.00;;;;;;5068644;23;20223;-67
2023/01/25 01:49:50;;;;;;;12.23;10.73;;;2.10;30.20;;;;;;5036076;28;20584;-65
2023/01/25 01:52:18;;;;;;;12.10;10.87;;;2.10;99.90;;;;;;5051292;28;20177;-66
2023/01/25 01:54:52;;;;;;;11.70;10.20;;;2.10;99.90;;;;;;5046693;28;20218;-66
2023/01/25 01:57:30;;;;;;;10.23;9.57;;;2.10;99.90;;;;;;5045826;28;20281;-65
2023/01/25 02:00:18;;;;;;;10.50;9.57;;;2.10;99.90;;;;;;5060489;28;20170;-66
2023/01/25 02:02:45;;;;;;;10.90;9.97;;;2.10;99.90;;;;;;5075463;28;20170;-65
2023/01/25 02:05:19;;;;;;;10.10;9.30;;;2.10;99.90;;;;;;5067781;28;20210;-66
2023/01/25 02:07:47;;;;;;;9.07;8.47;;;2.10;1.00;;;;;;5055136;28;20218;-65
2023/01/25 02:10:13;;;;;;;12.07;11.03;;;2.00;1.00;;;;;;5061504;28;20185;-66
2023/01/25 02:12:40;;;;;;;10.43;9.67;;;2.00;1.00;;;;;;5073512;28;20718;-66
2023/01/25 02:15:06;;;;;;;12.37;10.57;;;2.00;1.00;;;;;;5069306;28;20282;-66
2023/01/25 02:17:35;;;;;;;9.97;9.13;;;2.00;1.00;;;;;;5056065;28;20667;-66
2023/01/25 02:20:16;;;;;;;10.27;9.23;;;2.00;1.00;;;;;;5058605;28;20174;-66
2023/01/25 02:23:09;;;;;;;10.77;9.87;;;2.10;1.00;;;;;;5073708;28;20182;-66
2023/01/25 02:25:35;;;;;;;10.17;9.47;;;2.10;1.00;;;;;;5064677;28;20175;-66
2023/01/25 02:28:24;;;;;;;11.13;10.20;;;2.10;1.00;;;;;;5053490;28;20195;-66
2023/01/25 02:30:50;;;;;;;11.97;9.50;;;2.20;1.00;;;;;;5063349;28;20174;-66
2023/01/25 02:33:16;;;;;;;10.43;9.60;;;2.20;1.00;;;;;;5074536;28;20174;-65
2023/01/25 02:35:44;;;;;;;10.53;9.63;;;2.20;1.00;;;;;;5066472;28;20209;-66
2023/01/25 02:38:13;;;;;;;10.20;9.37;;;2.20;1.00;;;;;;5054489;28;20183;-66
2023/01/25 02:40:49;;;;;;;11.63;10.67;;;2.20;1.00;;;;;;5061131;28;20174;-66
2023/01/25 02:43:15;;;;;;;10.97;10.00;;;2.20;1.00;;;;;;5073004;28;20172;-65
2023/01/25 02:45:44;;;;;;;10.87;9.87;;;2.20;1.00;;;;;;5067579;28;20190;-65
2023/01/25 02:48:10;;;;;;;10.57;9.77;;;2.20;1.00;;;;;;5054091;28;20692;-66
2023/01/25 02:50:35;;;;;;;10.73;9.87;;;2.20;1.00;;;;;;5059366;28;20181;-66
2023/01/25 02:53:01;;;;;;;10.07;9.30;;;2.20;1.00;;;;;;5074137;28;20571;-65
2023/01/25 02:55:26;;;;;;;9.97;9.17;;;2.20;1.00;;;;;;5070193;28;20209;-66
2023/01/25 02:57:52;;;;;;;12.07;11.10;;;2.20;1.00;;;;;;5054154;28;20533;-66
2023/01/25 03:00:18;;;;;;;10.63;9.40;;;2.20;1.00;;;;;;5055415;28;20170;-66
2023/01/25 03:02:44;;;;;;;11.37;10.37;;;2.20;1.00;;;;;;5074292;28;20194;-66
2023/01/25 03:05:09;;;;;;;12.27;11.07;;;2.20;1.00;;;;;;5073474;28;20170;-66
2023/01/25 03:07:35;;;;;;;11.10;10.20;;;2.20;1.00;;;;;;5052937;28;20252;-65
2023/01/25 03:10:00;;;;;;;9.07;8.47;;;2.10;9.20;;;;;;5053853;28;20177;-66
2023/01/25 03:12:26;;;;;;;10.70;9.70;;;2.10;34.30;;;;;;5070969;28;20244;-66
2023/01/25 03:14:51;;;;;;;11.33;10.43;;;2.10;92.90;;;;;;5073905;28;20651;-66
2023/01/25 03:17:17;;;;;;;12.53;11.23;;;2.20;73.80;;;;;;5055200;28;20195;-66
2023/01/25 03:19:43;;;;;;;10.90;10.00;;;2.20;62.10;;;;;;5053534;28;20167;-66
2023/01/25 03:22:09;;;;;;;10.57;9.77;;;2.30;96.10;;;;;;5068644;28;20201;-65
2023/01/25 03:24:35;;;;;;;10.40;9.50;;;2.20;1.00;;;;;;5059492;28;20171;-65
2023/01/25 03:27:10;;;;;;;11.50;10.43;;;2.20;1.00;;;;;;5053594;28;20198;-65
2023/01/25 03:29:36;;;;;;;10.37;9.50;;;2.20;99.90;;;;;;5066909;28;20193;-65
2023/01/25 03:32:02;;;;;;;9.73;8.93;;;2.20;99.90;;;;;;5073531;28;20162;-65
2023/01/25 03:34:27;;;;;;;9.97;8.97;;;2.30;99.90;;;;;;5061483;28;20220;-65
2023/01/25 03:36:53;;;;;;;10.57;8.77;;;2.20;99.60;;;;;;5053513;28;20273;-65
2023/01/25 03:39:19;;;;;;;10.07;9.23;;;2.20;94.10;;;;;;5061516;28;20262;-66
2023/01/25 03:41:44;;;;;;;9.57;8.90;;;2.20;92.80;;;;;;5073639;28;20167;-65
2023/01/25 03:44:10;;;;;;;10.80;9.93;;;2.20;99.90;;;;;;5064872;28;20309;-66
2023/01/25 03:46:40;;;;;;;10.57;9.67;;;2.20;99.90;;;;;;5053233;28;20202;-66
2023/01/25 03:49:06;;;;;;;10.30;9.60;;;2.20;99.90;;;;;;5061506;28;20181;-66
2023/01/25 03:51:33;;;;;;;10.73;9.83;;;2.10;99.90;;;;;;5075750;28;20273;-66
2023/01/25 03:53:59;;;;;;;10.37;9.50;;;2.00;99.90;;;;;;5068874;28;20178;-66
2023/01/25 03:56:25;;;;;;;10.17;9.57;;;2.00;99.90;;;;;;5052987;28;20219;-65
2023/01/25 03:58:50;;;;;;;10.43;9.40;;;2.00;99.90;;;;;;5056927;28;20597;-65
2023/01/25 04:01:16;;;;;;;9.03;8.43;;;2.00;99.90;;;;;;5072580;28;20178;-65
2023/01/25 04:03:42;;;;;;;9.70;9.00;;;2.00;99.90;;;;;;5070640;28;20198;-65
2023/01/25 04:06:07;;;;;;;10.20;9.37;;;2.00;99.90;;;;;;5052837;28;20253;-65
2023/01/25 04:08:33;;;;;;;10.27;9.43;;;2.00;99.90;;;;;;5053105;28;20175;-64
2023/01/25 04:11:02;;;;;;;9.90;9.10;;;2.00;99.90;;;;;;5072516;28;20181;-64
2023/01/25 04:13:28;;;;;;;9.50;8.77;;;2.00;99.90;;;;;;5072667;28;20179;-66
2023/01/25 04:15:54;;;;;;;11.33;9.27;;;2.10;1.00;;;;;;5053109;28;20214;-66
2023/01/25 04:18:20;;;;;;;9.77;8.97;;;2.10;99.90;;;;;;5051888;28;20286;-66
2023/01/25 04:20:52;;;;;;;11.57;10.53;;;2.10;99.90;;;;;;5070055;28;20274;-65
2023/01/25 04:23:18;;;;;;;11.27;10.33;;;2.10;99.90;;;;;;5072454;28;20224;-65
2023/01/25 04:25:55;;;;;;;10.63;9.63;;;2.10;99.90;;;;;;5054335;28;20225;-65
2023/01/25 04:28:20;;;;;;;12.13;11.10;;;2.20;99.90;;;;;;5052392;28;20198;-65
2023/01/25 04:30:46;;;;;;;10.87;9.90;;;2.20;99.90;;;;;;5053332;28;20240;-66
2023/01/25 04:33:12;;;;;;;11.03;10.37;;;2.20;99.90;;;;;;5052264;28;20648;-65
2023/01/25 04:35:38;;;;;;;11.23;10.17;;;2.20;99.90;;;;;;5062987;28;20212;-65
2023/01/25 04:38:03;;;;;;;10.27;9.63;;;2.10;99.90;;;;;;5053470;28;20194;-65
2023/01/25 04:40:29;;;;;;;11.23;10.40;;;2.10;99.90;;;;;;5052092;28;20225;-66
2023/01/25 04:42:55;;;;;;;12.30;11.27;;;2.10;99.90;;;;;;5052267;28;20589;-65
2023/01/25 04:45:22;;;;;;;14.30;12.67;;;2.10;99.90;;;;;;5061684;28;20232;-65
2023/01/25 04:47:48;;;;;;;11.17;10.40;;;2.10;99.90;;;;;;5072262;28;20653;-65
2023/01/25 04:50:14;;;;;;;11.23;10.23;;;2.10;99.90;;;;;;5062006;28;20193;-64
2023/01/25 04:52:40;;;;;;;9.47;8.77;;;2.20;99.90;;;;;;5052298;28;20652;-64
2023/01/25 04:55:06;;;;;;;9.90;9.20;;;2.20;99.90;;;;;;5059312;28;20212;-65
2023/01/25 04:57:32;;;;;;;9.47;8.67;;;2.10;99.90;;;;;;5071891;28;20241;-65
2023/01/25 04:59:57;;;;;;;10.07;9.17;;;2.10;99.90;;;;;;5065514;28;20650;-65
2023/01/25 05:02:23;;;;;;;10.23;9.33;;;2.00;99.90;;;;;;5051828;28;20171;-65
2023/01/25 05:04:49;;;;;;;9.60;8.77;;;2.00;1.00;;;;;;5055925;28;20548;-64
2023/01/25 05:07:14;;;;;;;10.80;9.97;;;2.00;1.00;;;;;;5071669;28;20197;-65
2023/01/25 05:09:40;;;;;;;9.87;9.17;;;1.90;1.00;;;;;;5068888;28;20617;-65
2023/01/25 05:12:10;;;;;;;10.17;9.17;;;1.90;1.00;;;;;;5051726;28;20684;-65
2023/01/25 05:14:37;;;;;;;10.27;9.47;;;1.90;1.00;;;;;;5052853;28;20174;-65
2023/01/25 05:17:03;;;;;;;10.87;9.87;;;2.00;1.00;;;;;;5071635;28;20273;-64
2023/01/25 05:19:29;;;;;;;9.73;9.13;;;2.00;1.00;;;;;;5071051;28;20197;-65
2023/01/25 05:21:57;;;;;;;10.30;9.50;;;2.00;1.00;;;;;;5051645;28;20179;-63
2023/01/25 05:24:30;;;;;;;10.93;9.80;;;2.00;1.00;;;;;;5050937;28;20664;-65
2023/01/25 05:26:59;;;;;;;9.87;9.07;;;2.00;1.00;;;;;;5071090;28;20193;-65
2023/01/25 05:29:28;;;;;;;9.73;8.90;;;2.00;1.00;;;;;;5071210;28;20308;-65
2023/01/25 05:31:55;;;;;;;11.53;10.60;;;2.00;1.00;;;;;;5052368;28;20178;-65
2023/01/25 05:34:20;;;;;;;13.47;9.67;;;2.00;1.00;;;;;;5051461;28;20189;-65
2023/01/25 05:36:46;;;;;;;11.20;10.13;;;2.00;1.00;;;;;;5068186;28;20213;-65
2023/01/25 05:39:11;;;;;;;11.13;10.20;;;2.00;1.00;;;;;;5071038;28;20170;-65
2023/01/25 05:41:37;;;;;;;12.83;10.57;;;2.00;1.00;;;;;;5055668;28;20182;-65
2023/01/25 05:44:03;;;;;;;11.30;10.20;;;2.00;1.00;;;;;;5051599;28;20547;-64
2023/01/25 05:46:29;;;;;;;10.90;9.73;;;2.10;1.00;;;;;;5064584;28;20210;-64
2023/01/25 05:48:54;;;;;;;11.40;10.40;;;2.10;1.00;;;;;;5071697;28;20181;-65
2023/01/25 05:51:20;;;;;;;8.80;8.30;;;2.10;1.00;;;;;;5058554;28;20187;-65
2023/01/25 05:53:46;;;;;;;11.37;10.47;;;2.10;1.00;;;;;;5051434;28;20175;-64
2023/01/25 05:56:11;;;;;;;14.47;10.33;;;2.20;1.00;;;;;;5060802;28;20217;-65
2023/01/25 05:58:37;;;;;;;11.03;10.07;;;2.20;1.00;;;;;;5071276;28;20205;-65
2023/01/25 06:01:05;;;;;;;9.50;8.70;;;2.30;1.00;;;;;;5062205;28;20278;-64
2023/01/25 06:03:31;;;;;;;12.40;11.23;;;2.30;1.00;;;;;;5050985;28;20171;-66
2023/01/25 06:05:58;;;;;;;11.60;10.23;;;2.30;1.00;;;;;;5057920;28;20255;-65
2023/01/25 06:08:24;;;;;;;13.57;9.20;;;2.30;1.00;;;;;;5071136;28;20221;-65
2023/01/25 06:10:50;;;;;;;9.83;9.17;;;2.20;1.00;;;;;;5065098;28;20214;-64
2023/01/25 06:13:16;;;;;;;11.53;10.43;;;2.10;1.00;;;;;;5050849;28;20175;-65
2023/01/25 06:15:42;;;;;;;11.80;10.83;;;2.00;1.00;;;;;;5054760;28;20198;-65
2023/01/25 06:18:07;;;;;;;12.57;11.30;;;2.00;1.00;;;;;;5070817;28;20674;-65
2023/01/25 06:20:33;;;;;;;11.57;10.37;;;2.10;1.00;;;;;;5068439;28;20174;-65
2023/01/25 06:22:59;;;;;;;12.43;11.17;;;2.10;1.00;;;;;;5050962;28;20592;-65
2023/01/25 06:25:25;;;;;;;10.17;9.37;;;2.00;1.00;;;;;;5050361;28;20179;-65
2023/01/25 06:27:50;;;;;;;10.63;9.83;;;2.00;1.00;;;;;;5070940;28;20202;-64
2023/01/25 06:30:16;;;;;;;11.13;10.03;;;1.90;1.00;;;;;;5070607;28;20316;-65
2023/01/25 06:32:41;;;;;;;13.33;12.20;;;2.00;1.00;;;;;;5052065;28;20186;-65
2023/01/25 06:35:07;;;;;;;15.53;11.63;;;2.00;1.00;;;;;;5050771;28;20694;-65
2023/01/25 06:37:33;;;;;;;10.27;9.47;;;2.00;1.00;;;;;;5061871;28;20279;-65
2023/01/25 06:39:59;;;;;;;11.63;10.70;;;2.00;1.00;;;;;;5070664;28;20210;-64
2023/01/25 06:42:24;;;;;;;14.80;12.40;;;2.00;1.00;;;;;;5057261;28;20179;-66
2023/01/25 06:44:50;;;;;;;13.03;11.73;;;2.00;1.00;;;;;;5054686;28;20194;-66
2023/01/25 06:47:15;;;;;;;11.97;10.77;;;2.00;1.00;;;;;;5067221;28;20329;-64
2023/01/25 06:49:41;;;;;;;11.33;10.13;;;2.10;1.00;;;;;;5074086;28;20627;-64
2023/01/25 06:52:07;;;;;;;13.40;10.83;;;2.10;1.00;;;;;;5062238;28;20187;-64
2023/01/25 06:54:33;;;;;;;15.13;11.57;;;2.10;1.00;;;;;;5054289;28;20177;-64
2023/01/25 06:56:59;;;;;;;12.47;11.30;;;2.10;1.00;;;;;;5063965;28;20592;-64
2023/01/25 06:59:24;;;;;;;12.80;11.07;;;2.10;1.00;;;;;;5073873;28;20588;-65
2023/01/25 07:01:50;;;;;;;11.57;10.67;;;2.10;1.00;;;;;;5065767;28;20249;-64
2023/01/25 07:04:15;;;;;;;11.77;10.67;;;2.10;1.00;;;;;;5052093;28;20206;-64
2023/01/25 07:06:41;;;;;;;14.60;11.23;;;2.10;1.00;;;;;;5054311;28;20209;-65
2023/01/25 07:09:09;;;;;;;11.70;10.80;;;2.10;1.00;;;;;;5053753;28;20191;-65
2023/01/25 07:11:35;;;;;;;11.23;10.20;;;2.10;1.00;;;;;;5057533;28;20268;-65
2023/01/25 07:14:02;;;;;;;12.13;10.90;;;2.10;1.00;;;;;;5073816;28;20170;-65
2023/01/25 07:16:28;;;;;;;14.53;13.23;;;2.10;1.00;;;;;;5070392;28;20253;-64
2023/01/25 07:18:53;;;;;;;13.47;10.87;;;2.10;1.00;;;;;;5054249;28;20636;-65
2023/01/25 07:21:21;;;;;;;13.03;11.57;;;2.10;1.00;;;;;;5055022;28;20244;-65
2023/01/25 07:23:51;;;;;;;13.17;11.13;;;2.10;1.00;;;;;;5074152;28;20166;-65
2023/01/25 07:26:23;;;;;;;12.80;11.50;;;2.10;1.00;;;;;;5072516;28;20232;-64
2023/01/25 07:28:50;;;;;;;13.10;11.97;;;2.10;1.00;;;;;;5053660;28;20167;-66
2023/01/25 07:31:16;;;;;;;13.30;12.23;;;2.10;1.00;;;;;;5053025;28;20652;-64
2023/01/25 07:33:42;;;;;;;14.03;10.87;;;2.10;1.00;;;;;;5072185;28;20228;-65
2023/01/25 07:36:09;;;;;;;12.00;10.93;;;2.10;1.00;;;;;;5073308;28;20602;-66
2023/01/25 07:38:35;;;;;;;11.40;10.53;;;2.20;1.00;;;;;;5054264;28;20175;-65
2023/01/25 07:41:02;;;;;;;12.67;11.50;;;2.10;1.00;;;;;;5051567;28;20608;-65
2023/01/25 07:43:28;;;;;;;13.90;12.43;;;2.10;1.00;;;;;;5070476;28;20724;-66
2023/01/25 07:45:59;;;;;;;11.97;11.07;;;2.10;1.00;;;;;;5072067;28;20265;-65
2023/01/25 07:48:24;;;;;;;12.00;10.73;;;2.10;1.00;;;;;;5057013;28;20199;-65
2023/01/25 07:51:09;;;;;;;11.50;10.33;;;2.00;1.00;;;;;;5052808;28;20256;-65
2023/01/25 07:53:34;;;;;;;12.10;11.10;;;1.90;1.00;;;;;;5068577;28;20265;-65
2023/01/25 07:56:00;;;;;;;12.33;10.47;;;1.90;1.00;;;;;;5072823;28;20288;-65
2023/01/25 07:58:25;;;;;;;11.63;10.60;;;1.90;1.00;;;;;;5066966;28;20194;-65
2023/01/25 08:00:51;;;;;;;12.17;11.17;;;1.90;1.00;;;;;;5072551;28;20177;-65
2023/01/25 08:03:20;;;;;;;20.67;12.97;;;1.90;1.00;;;;;;5058694;28;20183;-65
2023/01/25 08:05:47;;;;;;;14.40;11.40;;;1.90;1.00;;;;;;5053030;28;20178;-65
2023/01/25 08:08:12;;;;;;;13.97;12.67;;;1.90;1.00;;;;;;5064494;28;20206;-65
2023/01/25 08:10:38;;;;;;;13.40;12.13;;;1.80;1.00;;;;;;5072417;28;20185;-65
2023/01/25 08:13:05;;;;;;;10.90;10.00;;;1.80;1.00;;;;;;5061685;28;20236;-65
2023/01/25 08:15:31;;;;;;;12.30;11.13;;;1.80;1.00;;;;;;5052433;28;20251;-65
2023/01/25 08:18:00;;;;;;;11.17;10.23;;;1.90;4.80;;;;;;5060950;28;20229;-65
2023/01/25 08:20:26;;;;;;;11.77;10.63;;;1.90;5.80;;;;;;5072122;28;20542;-65
2023/01/25 08:22:52;;;;;;;11.43;10.03;;;1.90;1.00;;;;;;5064813;28;20187;-65
2023/01/25 08:25:18;;;;;;;11.13;10.33;;;2.00;2.30;;;;;;5052143;28;20178;-65
2023/01/25 08:27:44;;;;;;;11.77;10.53;;;2.00;1.00;;;;;;5057564;28;20550;-65
2023/01/25 08:30:11;;;;;;;11.73;10.57;;;2.00;1.00;;;;;;5056020;28;20186;-65
2023/01/25 08:32:37;;;;;;;11.57;10.57;;;2.00;1.00;;;;;;5055833;28;20217;-65
2023/01/25 08:35:03;;;;;;;20.37;15.73;;;2.00;1.00;;;;;;5072031;28;20247;-65
2023/01/25 08:37:28;;;;;;;13.23;11.80;;;2.00;1.00;;;;;;5070155;28;20555;-65
2023/01/25 08:39:58;;;;;;;15.93;13.23;;;2.00;1.00;;;;;;5054626;28;20173;-65
2023/01/25 08:42:24;;;;;;;14.70;13.27;;;2.10;1.00;;;;;;5051985;28;20540;-65
2023/01/25 08:44:50;;;;;;;13.13;12.00;;;2.00;1.00;;;;;;5052054;28;20178;-65
2023/01/25 08:47:16;;;;;;;11.00;10.00;;;2.00;1.00;;;;;;5051819;28;20660;-65
2023/01/25 08:49:41;;;;;;;14.63;11.67;;;2.00;1.00;;;;;;5051778;28;20178;-65
2023/01/25 08:52:07;;;;;;;14.63;13.10;;;1.90;1.00;;;;;;5051741;28;20171;-65
2023/01/25 08:54:32;;;;;;;13.67;12.20;;;1.90;1.00;;;;;;5068348;28;20186;-65
2023/01/25 08:57:00;;;;;;;12.60;11.40;;;1.90;1.00;;;;;;5071661;28;20578;-65
2023/01/25 08:59:25;;;;;;;12.10;11.13;;;1.90;1.00;;;;;;5055913;28;20182;-65
2023/01/25 09:01:51;;;;;;;20.13;13.00;;;2.00;1.00;;;;;;5050000;28;20244;-65
2023/01/25 09:04:16;;;;;;;15.57;12.30;;;2.00;1.00;;;;;;5064343;28;20617;-65
2023/01/25 09:06:43;;;;;;;15.03;12.30;;;2.00;1.00;;;;;;5071593;28;20201;-65
2023/01/25 09:09:10;;;;;;;16.13;14.47;;;2.10;1.00;;;;;;5069045;28;20184;-65
2023/01/25 09:11:36;;;;;;;12.87;11.60;;;2.10;1.00;;;;;;5071639;28;20182;-65
2023/01/25 09:14:02;;;;;;;13.80;12.60;;;2.10;1.00;;;;;;5061605;28;20178;-65
2023/01/25 09:16:28;;;;;;;13.80;12.47;;;2.20;1.00;;;;;;5051654;28;20289;-66
2023/01/25 09:18:56;;;;;;;12.83;11.83;;;2.20;1.00;;;;;;5052574;28;20179;-65
2023/01/25 09:21:21;;;;;;;15.87;12.10;;;2.20;1.00;;;;;;5049667;28;20199;-65
2023/01/25 09:23:49;;;;;;;14.37;12.83;;;2.20;1.00;;;;;;5057649;28;20232;-65
2023/01/25 09:26:15;;;;;;;19.17;11.40;;;2.20;1.00;;;;;;5072065;28;20535;-65
2023/01/25 09:28:44;;;;;;;15.17;12.60;;;2.20;1.00;;;;;;5066568;28;20210;-65
2023/01/25 09:31:10;;;;;;;11.50;10.63;;;2.30;1.00;;;;;;5049479;28;20182;-65
2023/01/25 09:33:38;;;;;;;12.23;11.20;;;2.20;1.00;;;;;;5054512;28;20568;-65
2023/01/25 09:36:05;;;;;;;15.37;12.40;;;2.20;1.00;;;;;;5071084;28;20288;-65
2023/01/25 09:38:30;;;;;;;13.73;12.40;;;2.20;1.00;;;;;;5066547;28;20179;-65
2023/01/25 09:41:23;;;;;;;15.77;12.43;;;2.10;1.00;;;;;;5071036;28;20264;-65
2023/01/25 09:44:11;;;;;;;14.00;12.63;;;2.10;1.00;;;;;;5066077;28;20174;-65
2023/01/25 09:46:41;;;;;;;13.80;12.47;;;2.10;1.00;;;;;;5051469;28;20207;-65
2023/01/25 09:49:30;;;;;;;15.60;12.37;;;3.20;1.00;;;;;;5056198;28;20173;-66
2023/01/25 09:52:01;;;;;;;13.70;11.70;;;2.20;1.00;;;;;;5069365;28;20721;-66
2023/01/25 09:54:30;;;;;;;14.47;13.00;;;2.30;1.00;;;;;;5052020;28;20210;-66
2023/01/25 09:56:58;;;;;;;15.97;13.27;;;2.30;1.00;;;;;;5053614;28;20218;-65
2023/01/25 09:59:29;;;;;;;17.53;11.57;;;2.40;1.00;;;;;;5070567;28;20261;-64
2023/01/25 10:02:24;;;;;;;20.63;12.60;;;2.40;1.00;;;;;;5068703;28;20170;-65
2023/01/25 10:04:52;;;;;;;19.73;11.50;;;2.40;1.00;;;;;;5051944;28;20288;-64
2023/01/25 10:07:40;;;;;;;17.03;11.87;;;2.50;1.00;;;;;;5047563;28;20214;-65
2023/01/25 10:10:12;;;;;;;18.50;13.43;;;2.50;1.00;;;;;;5050859;28;20656;-65
2023/01/25 10:12:38;;;;;;;21.83;11.00;;;2.50;1.00;;;;;;5051009;28;20167;-64
2023/01/25 10:15:37;;;;;;;14.03;12.67;;;2.40;1.00;;;;;;5050881;28;20277;-63
2023/01/25 10:18:15;;;;;;;16.07;13.37;;;2.40;1.00;;;;;;5045740;28;20209;-65
2023/01/25 10:20:59;;;;;;;14.83;13.17;;;2.40;1.00;;;;;;5053356;28;20211;-64
2023/01/25 10:23:41;;;;;;;15.13;10.87;;;2.40;1.00;;;;;;5053709;28;20170;-65
2023/01/25 10:26:22;;;;;;;18.63;11.93;;;2.30;1.00;;;;;;5053438;28;20175;-65
2023/01/25 10:29:17;;;;;;;20.17;12.93;;;2.30;1.00;;;;;;5052746;28;20187;-66
2023/01/25 10:31:52;;;;;;;13.23;11.83;;;2.30;1.00;;;;;;5054583;28;20225;-65
2023/01/25 10:34:23;;;;;;;18.37;11.53;;;2.30;1.00;;;;;;5069870;28;20371;-64
2023/01/25 10:36:56;;;;;;;16.97;12.00;;;2.40;1.00;;;;;;5054473;28;20215;-65
2023/01/25 10:39:22;;;;;;;14.20;12.57;;;2.40;1.00;;;;;;5054254;28;20201;-65
2023/01/25 10:41:54;;;;;;;16.80;12.03;;;2.50;1.00;;;;;;5054492;28;20163;-65
2023/01/25 10:44:20;;;;;;;15.43;11.30;;;2.50;1.00;;;;;;5054155;28;20175;-65
2023/01/25 10:46:52;;;;;;;21.80;11.23;;;2.40;1.00;;;;;;5057837;28;20317;-65
2023/01/25 10:49:42;;;;;;;17.00;11.77;;;2.40;1.00;;;;;;5054032;28;20182;-65
2023/01/25 10:52:15;;;;;;;12.53;10.43;;;2.40;1.00;;;;;;5052645;28;20182;-65
2023/01/25 10:54:41;;;;;;;14.00;10.80;;;2.40;1.00;;;;;;5054850;28;20190;-65
2023/01/25 10:57:11;;;;;;;21.33;14.60;;;2.40;1.00;;;;;;5065223;28;20206;-65
2023/01/25 10:59:36;;;;;;;14.57;12.10;;;2.40;1.00;;;;;;5053506;28;20179;-66
2023/01/25 11:02:36;;;;;;;15.83;11.20;;;2.40;1.00;;;;;;5056797;28;20186;-65
2023/01/25 11:05:17;;;;;;;23.90;13.63;;;2.40;1.00;;;;;;5073948;28;20174;-65
2023/01/25 11:07:43;;;;;;;13.63;11.97;;;2.40;1.00;;;;;;5061492;28;20709;-65
2023/01/25 11:10:29;;;;;;;12.30;11.03;;;2.40;1.00;;;;;;5067502;28;20178;-65
2023/01/25 11:13:13;;;;;;;26.70;13.63;;;2.40;1.00;;;;;;5060241;28;20555;-65
2023/01/25 11:15:41;;;;;;;11.87;10.83;;;2.40;1.00;;;;;;5053659;28;20202;-65
2023/01/25 11:18:33;;;;;;;16.43;12.23;;;2.50;1.00;;;;;;5067313;28;20205;-65
2023/01/25 11:21:18;;;;;;;20.13;13.17;;;2.60;1.00;;;;;;5072159;28;20649;-65
2023/01/25 11:24:07;;;;;;;12.43;11.47;;;2.60;1.00;;;;;;5055014;28;20186;-65
2023/01/25 11:26:36;;;;;;;14.73;10.83;;;2.50;1.00;;;;;;5053566;28;20285;-65
2023/01/25 11:29:15;;;;;;;13.53;12.10;;;2.50;1.00;;;;;;5048755;28;20187;-65
2023/01/25 11:31:46;;;;;;;12.60;10.70;;;2.40;1.00;;;;;;5033992;28;20183;-66
2023/01/25 11:34:15;;;;;;;13.33;11.93;;;2.30;1.00;;;;;;5047521;28;20283;-65
2023/01/25 11:37:04;;;;;;;13.73;12.40;;;2.20;1.00;;;;;;5059679;28;20425;-65
2023/01/25 11:39:56;;;;;;;17.20;12.73;;;2.20;1.00;;;;;;5065612;28;20274;-65
2023/01/25 11:42:51;;;;;;;20.30;12.83;;;2.30;1.00;;;;;;5061457;28;20187;-65
2023/01/25 11:45:38;;;;;;;18.57;12.53;;;2.40;6.90;;;;;;5053223;28;20181;-65
2023/01/25 11:48:42;;;;;;;22.03;13.33;;;2.30;1.00;;;;;;5069223;28;20263;-66
2023/01/25 11:51:16;;;;;;;12.77;11.47;;;2.30;1.00;;;;;;5072610;28;20181;-65
2023/01/25 11:53:57;;;;;;;13.30;12.00;;;2.40;1.00;;;;;;5032955;28;20182;-66
2023/01/25 11:56:41;;;;;;;20.97;12.43;;;2.40;1.00;;;;;;5035704;28;20242;-65
2023/01/25 11:59:50;;;;;;;15.03;12.80;;;2.50;1.00;;;;;;5072753;28;20177;-66
2023/01/25 12:03:04;;;;;;;13.80;12.43;;;2.50;1.00;;;;;;5047354;28;20182;-66
2023/01/25 12:05:55;;;;;;;12.33;11.03;;;2.60;1.00;;;;;;5041835;28;20197;-66
2023/01/25 12:08:37;;;;;;;22.07;11.77;;;2.60;1.00;;;;;;5051526;28;20206;-67
2023/01/25 12:11:15;;;;;;;26.10;14.30;;;2.60;1.00;;;;;;5051174;28;20170;-66
2023/01/25 12:13:57;;;;;;;28.03;17.57;;;2.60;1.00;;;;;;5070795;28;20315;-67
2023/01/25 12:16:49;;;;;;;16.07;12.90;;;2.50;1.00;;;;;;5055044;28;20218;-66
2023/01/25 12:19:42;;;;;;;20.67;13.17;;;2.50;1.00;;;;;;5052249;28;20171;-67
2023/01/25 12:22:32;;;;;;;20.50;13.27;;;2.50;1.00;;;;;;5032634;28;20199;-65
2023/01/25 12:25:20;;;;;;;19.80;12.17;;;2.50;1.00;;;;;;5038523;28;21766;-66
2023/01/25 12:27:57;;;;;;;15.37;12.10;;;2.40;1.00;;;;;;5072129;28;20204;-65
2023/01/25 12:30:42;;;;;;;13.53;12.07;;;2.40;1.00;;;;;;5065954;28;20670;-66
2023/01/25 12:33:17;;;;;;;28.37;12.57;;;2.40;1.00;;;;;;5052158;28;20632;-66
2023/01/25 12:35:51;;;;;;;12.63;11.37;;;2.40;1.00;;;;;;5059507;28;20300;-65
2023/01/25 12:38:28;;;;;;;16.73;14.17;;;2.30;1.00;;;;;;5072003;28;20198;-66
2023/01/25 12:41:07;;;;;;;15.47;13.93;;;2.30;1.00;;;;;;5065916;28;20276;-66
2023/01/25 12:43:35;;;;;;;14.73;13.37;;;2.40;1.00;;;;;;5051844;28;20668;-67
2023/01/25 12:46:20;;;;;;;34.37;12.87;;;2.40;1.00;;;;;;5051898;28;20183;-65
2023/01/25 12:48:51;;;;;;;15.77;13.00;;;2.40;1.00;;;;;;5050803;28;20197;-65
2023/01/25 12:51:20;;;;;;;24.47;13.63;;;2.50;1.00;;;;;;5050543;28;20178;-65
2023/01/25 12:53:46;;;;;;;16.20;13.77;;;2.60;4.80;;;;;;5050442;28;20737;-66
2023/01/25 12:57:01;;;;;;;16.17;13.70;;;2.60;1.00;;;;;;5060279;28;20209;-66
2023/01/25 12:59:29;;;;;;;13.20;12.03;;;2.70;1.00;;;;;;5029040;28;20179;-65
2023/01/25 13:02:24;;;;;;;18.33;13.43;;;2.80;1.00;;;;;;5048360;28;20190;-66
2023/01/25 13:05:20;;;;;;;14.40;12.80;;;2.80;1.00;;;;;;5053422;28;20175;-65